Time;durP1;ratioP1;P1;durP2;ratioP2;P2;SDS_P1;SDS_P2;PMS_P1;PMS_P2;Temp;Humidity;BMP_temperature;BMP_pressure;BME280_temperature;BME280_humidity;BME280_pressure;Samples;Min_cycle;Max_cycle;Signal;HPM_P1;HPM_P2
2021/12/12 00:00:20;;;;;;;20.70;14.13;;;;;;;;;;5110546;27;20011;-42
2021/12/12 00:02:57;;;;;;;26.33;16.92;;;;;;;;;;5112725;27;20023;-43
2021/12/12 00:05:26;;;;;;;17.45;10.38;;;;;;;;;;5114767;27;20030;-43
2021/12/12 00:07:52;;;;;;;26.60;14.57;;;;;;;;;;5114171;27;20098;-41
2021/12/12 00:10:20;;;;;;;20.52;14.65;;;;;;;;;;5112773;27;20106;-44
2021/12/12 00:12:49;;;;;;;24.90;18.83;;;;;;;;;;5111227;27;20012;-42
2021/12/12 00:15:15;;;;;;;27.27;21.10;;;;;;;;;;5114338;27;20019;-44
2021/12/12 00:17:41;;;;;;;21.25;19.10;;;;;;;;;;5110778;27;20020;-41
2021/12/12 00:20:07;;;;;;;24.65;19.92;;;;;;;;;;5113509;27;20098;-41
2021/12/12 00:22:33;;;;;;;25.02;19.85;;;;;;;;;;5115267;27;20119;-41
2021/12/12 00:24:59;;;;;;;21.17;16.58;;;;;;;;;;5108803;27;20102;-44
2021/12/12 00:27:24;;;;;;;22.88;15.45;;;;;;;;;;5113382;27;20107;-42
2021/12/12 00:29:50;;;;;;;17.98;14.63;;;;;;;;;;5111307;27;20450;-43
2021/12/12 00:32:16;;;;;;;20.17;16.27;;;;;;;;;;5115377;27;20705;-44
2021/12/12 00:34:44;;;;;;;33.70;18.70;;;;;;;;;;5112859;27;20019;-42
2021/12/12 00:37:10;;;;;;;24.67;12.82;;;;;;;;;;5114557;27;20015;-45
2021/12/12 00:39:37;;;;;;;13.68;11.98;;;;;;;;;;5107108;27;20138;-45
2021/12/12 00:42:07;;;;;;;15.32;9.43;;;;;;;;;;5111597;27;20042;-43
2021/12/12 00:44:33;;;;;;;15.15;13.57;;;;;;;;;;5111942;27;20103;-43
2021/12/12 00:47:00;;;;;;;13.50;11.18;;;;;;;;;;5112700;27;20107;-42
2021/12/12 00:49:25;;;;;;;11.50;9.95;;;;;;;;;;5110080;27;20654;-45
2021/12/12 00:51:51;;;;;;;14.75;5.85;;;;;;;;;;5109898;27;20130;-47
2021/12/12 00:54:18;;;;;;;13.25;7.57;;;;;;;;;;5116749;27;20460;-43
2021/12/12 00:56:44;;;;;;;12.13;9.30;;;;;;;;;;5113661;27;20113;-43
2021/12/12 00:59:10;;;;;;;17.02;9.57;;;;;;;;;;5116456;27;20030;-42
2021/12/12 01:01:42;;;;;;;11.93;7.82;;;;;;;;;;5112410;27;20410;-47
2021/12/12 01:04:17;;;;;;;13.88;6.13;;;;;;;;;;5111950;27;20024;-42
2021/12/12 01:06:51;;;;;;;8.10;5.78;;;;;;;;;;5112738;27;20084;-43
2021/12/12 01:09:20;;;;;;;8.32;3.38;;;;;;;;;;5112406;27;20050;-43
2021/12/12 01:11:47;;;;;;;5.30;3.00;;;;;;;;;;5111292;27;20376;-42
2021/12/12 01:14:15;;;;;;;8.43;5.55;;;;;;;;;;5111845;28;20055;-47
2021/12/12 01:16:46;;;;;;;11.40;2.70;;;;;;;;;;5114221;28;20027;-43
2021/12/12 01:19:22;;;;;;;9.93;3.78;;;;;;;;;;5085965;28;20055;-44
2021/12/12 01:21:50;;;;;;;4.78;3.08;;;;;;;;;;5113843;28;20050;-41
2021/12/12 01:24:19;;;;;;;8.05;4.25;;;;;;;;;;5113387;28;20019;-43
2021/12/12 01:26:46;;;;;;;23.45;4.85;;;;;;;;;;5111124;28;20101;-42
2021/12/12 01:29:12;;;;;;;11.43;6.13;;;;;;;;;;5113044;28;20026;-41
2021/12/12 01:31:45;;;;;;;10.05;7.70;;;;;;;;;;5111352;28;20023;-42
2021/12/12 01:34:13;;;;;;;9.43;3.95;;;;;;;;;;5107814;28;20023;-44
2021/12/12 01:39:31;;;;;;;8.20;2.40;;;;;;;;;;5116159;28;20069;-41
2021/12/12 01:42:03;;;;;;;8.05;3.40;;;;;;;;;;5116437;28;20015;-42
2021/12/12 01:44:42;;;;;;;3.88;1.20;;;;;;;;;;5113584;28;20068;-41
2021/12/12 01:47:09;;;;;;;2.20;1.15;;;;;;;;;;5103510;28;20402;-42
2021/12/12 01:49:36;;;;;;;4.82;1.50;;;;;;;;;;5111918;28;20197;-43
2021/12/12 01:52:06;;;;;;;5.97;2.83;;;;;;;;;;5112312;28;20023;-46
2021/12/12 01:54:42;;;;;;;3.25;0.80;;;;;;;;;;5115618;28;20023;-43
2021/12/12 01:57:07;;;;;;;4.18;1.00;;;;;;;;;;5113963;28;20644;-42
2021/12/12 01:59:34;;;;;;;4.82;1.65;;;;;;;;;;5116581;28;20019;-43
2021/12/12 02:02:04;;;;;;;3.03;1.05;;;;;;;;;;5111636;27;20019;-43
2021/12/12 02:04:34;;;;;;;6.40;2.43;;;;;;;;;;5117912;27;20016;-41
2021/12/12 02:07:00;;;;;;;4.32;1.67;;;;;;;;;;5120166;27;20070;-44
2021/12/12 02:09:25;;;;;;;1.80;1.23;;;;;;;;;;5117290;27;20670;-44
2021/12/12 02:11:52;;;;;;;7.20;1.48;;;;;;;;;;5119560;27;20015;-45
2021/12/12 02:14:20;;;;;;;2.50;1.17;;;;;;;;;;5119399;27;20020;-42
2021/12/12 02:16:47;;;;;;;3.13;0.88;;;;;;;;;;5120070;27;20015;-43
2021/12/12 02:19:14;;;;;;;2.00;1.10;;;;;;;;;;5119110;27;20162;-43
2021/12/12 02:22:03;;;;;;;0.90;0.68;;;;;;;;;;5116566;27;20023;-43
2021/12/12 02:35:25;;;;;;;2.47;1.00;;;;;;;;;;5115690;27;20156;-42
2021/12/12 02:37:51;;;;;;;3.80;1.13;;;;;;;;;;5117508;27;20023;-42
2021/12/12 02:40:35;;;;;;;5.15;2.47;;;;;;;;;;5118321;27;20098;-41
2021/12/12 02:43:00;;;;;;;2.50;1.17;;;;;;;;;;5122305;27;20085;-42
2021/12/12 02:45:29;;;;;;;9.32;1.38;;;;;;;;;;5119671;27;20429;-42
2021/12/12 02:48:00;;;;;;;10.20;2.28;;;;;;;;;;5115938;27;20379;-46
2021/12/12 02:50:27;;;;;;;2.13;0.85;;;;;;;;;;5117679;27;20130;-42
2021/12/12 02:52:55;;;;;;;4.80;1.52;;;;;;;;;;5118308;27;20034;-44
2021/12/12 02:55:23;;;;;;;2.45;0.90;;;;;;;;;;5119499;27;20011;-42
2021/12/12 02:57:48;;;;;;;3.40;1.15;;;;;;;;;;5120127;27;20011;-41
2021/12/12 03:00:17;;;;;;;3.35;1.50;;;;;;;;;;5119372;27;20088;-43
2021/12/12 03:02:46;;;;;;;4.32;1.58;;;;;;;;;;5115845;27;20031;-43
2021/12/12 03:05:13;;;;;;;4.15;1.33;;;;;;;;;;5117084;27;20080;-44
2021/12/12 03:07:40;;;;;;;1.95;0.65;;;;;;;;;;5117084;27;20046;-44
2021/12/12 03:10:08;;;;;;;5.75;1.25;;;;;;;;;;5113759;27;20035;-44
2021/12/12 03:12:34;;;;;;;7.07;1.45;;;;;;;;;;5116564;27;20007;-42
2021/12/12 03:15:06;;;;;;;7.20;1.70;;;;;;;;;;5118382;27;20051;-41
2021/12/12 03:17:31;;;;;;;5.47;1.60;;;;;;;;;;5114314;27;20088;-45
2021/12/12 03:19:58;;;;;;;1.60;1.17;;;;;;;;;;5117741;27;20508;-43
2021/12/12 03:22:24;;;;;;;2.35;1.45;;;;;;;;;;5118951;27;20136;-42
2021/12/12 03:24:50;;;;;;;1.15;1.02;;;;;;;;;;5120017;27;20034;-42
2021/12/12 03:27:16;;;;;;;6.03;1.40;;;;;;;;;;5112539;27;20047;-42
2021/12/12 03:29:42;;;;;;;10.43;1.58;;;;;;;;;;5116065;27;20051;-44
2021/12/12 03:32:13;;;;;;;4.65;0.88;;;;;;;;;;5115664;27;20034;-43
2021/12/12 03:34:40;;;;;;;2.60;1.35;;;;;;;;;;5115662;27;20047;-41
2021/12/12 03:37:07;;;;;;;1.88;0.65;;;;;;;;;;5116783;27;20055;-45
2021/12/12 03:39:34;;;;;;;3.75;1.17;;;;;;;;;;5115447;27;20011;-42
2021/12/12 03:42:01;;;;;;;1.67;1.08;;;;;;;;;;5113613;27;20019;-42
2021/12/12 03:44:29;;;;;;;3.70;1.58;;;;;;;;;;5114733;27;20019;-41
2021/12/12 03:46:58;;;;;;;2.97;0.85;;;;;;;;;;5118583;27;20020;-43
2021/12/12 03:49:24;;;;;;;2.30;1.30;;;;;;;;;;5113634;27;20049;-42
2021/12/12 03:51:50;;;;;;;7.00;1.70;;;;;;;;;;5116411;27;20909;-42
2021/12/12 03:54:16;;;;;;;2.10;0.98;;;;;;;;;;5115831;27;20043;-45
2021/12/12 03:56:41;;;;;;;2.70;0.63;;;;;;;;;;5115455;27;20080;-45
2021/12/12 03:59:07;;;;;;;6.82;1.83;;;;;;;;;;5118253;27;20304;-43
2021/12/12 04:01:37;;;;;;;5.25;2.22;;;;;;;;;;5121418;27;20026;-43
2021/12/12 04:04:14;;;;;;;2.53;1.13;;;;;;;;;;5111951;27;20068;-41
2021/12/12 04:06:40;;;;;;;2.88;0.63;;;;;;;;;;5117344;27;20034;-43
2021/12/12 04:09:06;;;;;;;0.80;0.50;;;;;;;;;;5115801;27;20027;-41
2021/12/12 04:11:37;;;;;;;4.57;1.23;;;;;;;;;;5115168;27;20065;-42
2021/12/12 04:14:03;;;;;;;1.63;0.63;;;;;;;;;;5115568;27;20541;-42
2021/12/12 04:16:29;;;;;;;3.05;0.93;;;;;;;;;;5112864;27;20019;-43
2021/12/12 04:18:55;;;;;;;2.88;1.30;;;;;;;;;;5112251;27;20127;-42
2021/12/12 04:21:21;;;;;;;8.20;2.05;;;;;;;;;;5112157;27;20315;-42
2021/12/12 04:23:46;;;;;;;3.15;0.98;;;;;;;;;;5114126;27;20026;-42
2021/12/12 04:26:12;;;;;;;6.88;1.38;;;;;;;;;;5114396;27;20102;-45
2021/12/12 04:28:38;;;;;;;0.77;0.50;;;;;;;;;;5113262;27;20019;-46
2021/12/12 04:31:04;;;;;;;11.15;1.63;;;;;;;;;;5117069;27;20088;-44
2021/12/12 04:33:29;;;;;;;5.05;1.10;;;;;;;;;;5115928;27;20480;-44
2021/12/12 04:35:55;;;;;;;5.63;1.50;;;;;;;;;;5117200;27;20068;-43
2021/12/12 04:38:22;;;;;;;9.32;0.60;;;;;;;;;;5115048;27;20496;-42
2021/12/12 04:40:47;;;;;;;5.40;1.58;;;;;;;;;;5117428;27;20219;-44
2021/12/12 04:43:13;;;;;;;1.25;0.70;;;;;;;;;;5114803;27;20110;-40
2021/12/12 04:46:08;;;;;;;2.75;1.13;;;;;;;;;;5114370;27;20053;-43
2021/12/12 04:51:20;;;;;;;0.45;0.43;;;;;;;;;;5116202;27;20101;-43
2021/12/12 04:54:08;;;;;;;2.72;1.10;;;;;;;;;;5115948;27;20030;-40
2021/12/12 04:56:52;;;;;;;12.35;1.38;;;;;;;;;;5111305;27;20012;-41
2021/12/12 04:59:24;;;;;;;0.68;0.45;;;;;;;;;;5117378;27;20047;-41
2021/12/12 05:01:49;;;;;;;;;;;;;;;;;;5114607;27;20011;-41
2021/12/12 05:04:18;;;;;;;2.27;0.60;;;;;;;;;;5116477;27;19907;-44
2021/12/12 05:06:45;;;;;;;11.13;1.60;;;;;;;;;;5116864;27;20395;-42
2021/12/12 05:09:10;;;;;;;2.53;1.05;;;;;;;;;;5112116;27;20387;-44
2021/12/12 05:11:44;;;;;;;3.17;1.60;;;;;;;;;;5116097;27;20019;-44
2021/12/12 05:14:13;;;;;;;2.78;1.60;;;;;;;;;;5113324;27;20639;-43
2021/12/12 05:16:40;;;;;;;6.18;0.90;;;;;;;;;;5090638;28;20411;-43
2021/12/12 05:19:13;;;;;;;3.15;0.80;;;;;;;;;;5115043;28;20044;-44
2021/12/12 05:21:42;;;;;;;1.95;1.23;;;;;;;;;;5115771;28;20018;-44
2021/12/12 05:24:11;;;;;;;2.00;1.02;;;;;;;;;;5113684;28;20019;-41
2021/12/12 05:26:38;;;;;;;3.97;1.17;;;;;;;;;;5116117;28;20028;-41
2021/12/12 05:29:07;;;;;;;2.67;0.95;;;;;;;;;;5113367;28;20232;-45
2021/12/12 05:31:32;;;;;;;6.05;2.13;;;;;;;;;;5110377;28;20111;-40
2021/12/12 05:33:58;;;;;;;1.38;0.75;;;;;;;;;;5117781;28;20102;-41
2021/12/12 05:36:24;;;;;;;4.85;0.93;;;;;;;;;;5113313;27;20022;-43
2021/12/12 05:38:50;;;;;;;3.60;0.88;;;;;;;;;;5120066;27;20038;-41
2021/12/12 05:41:18;;;;;;;5.13;1.55;;;;;;;;;;5116840;27;20008;-42
2021/12/12 05:43:44;;;;;;;1.00;0.77;;;;;;;;;;5118275;27;20088;-42
2021/12/12 05:46:13;;;;;;;1.05;0.60;;;;;;;;;;5121709;27;20023;-42
2021/12/12 05:48:39;;;;;;;1.27;0.85;;;;;;;;;;5119526;27;20470;-41
2021/12/12 05:51:04;;;;;;;2.88;0.70;;;;;;;;;;5114252;27;20484;-41
2021/12/12 05:53:29;;;;;;;1.73;0.70;;;;;;;;;;5115641;27;20031;-41
2021/12/12 05:55:55;;;;;;;1.65;0.60;;;;;;;;;;5116237;27;20122;-42
2021/12/12 05:58:21;;;;;;;1.23;1.08;;;;;;;;;;5118481;27;20023;-42
2021/12/12 06:00:46;;;;;;;0.45;0.20;;;;;;;;;;5120726;27;20094;-43
2021/12/12 06:03:13;;;;;;;2.20;0.40;;;;;;;;;;5119554;27;20564;-42
2021/12/12 06:05:39;;;;;;;10.02;0.77;;;;;;;;;;5113616;27;20026;-41
2021/12/12 06:08:05;;;;;;;8.32;1.75;;;;;;;;;;5120488;27;20019;-42
2021/12/12 06:10:32;;;;;;;3.60;2.38;;;;;;;;;;5119274;27;20022;-41
2021/12/12 06:12:58;;;;;;;2.17;1.63;;;;;;;;;;5120696;27;20070;-41
2021/12/12 06:15:27;;;;;;;5.57;2.42;;;;;;;;;;5117705;27;20023;-42
2021/12/12 06:17:52;;;;;;;1.55;1.25;;;;;;;;;;5118434;27;20444;-43
2021/12/12 06:20:19;;;;;;;5.50;1.90;;;;;;;;;;5119417;27;20086;-43
2021/12/12 06:22:44;;;;;;;7.72;4.72;;;;;;;;;;5114531;27;20050;-41
2021/12/12 06:25:10;;;;;;;12.77;2.38;;;;;;;;;;5119271;27;20023;-45
2021/12/12 06:27:36;;;;;;;4.15;2.70;;;;;;;;;;5119158;27;20539;-44
2021/12/12 06:30:03;;;;;;;6.85;3.20;;;;;;;;;;5120623;27;20033;-42
2021/12/12 06:32:28;;;;;;;4.55;3.60;;;;;;;;;;5117176;27;20023;-43
2021/12/12 06:34:55;;;;;;;8.48;5.05;;;;;;;;;;5095564;27;20077;-44
2021/12/12 06:37:21;;;;;;;5.85;4.25;;;;;;;;;;5118024;27;20730;-41
2021/12/12 06:39:48;;;;;;;3.67;3.05;;;;;;;;;;5118026;27;20121;-44
2021/12/12 06:42:14;;;;;;;3.03;2.08;;;;;;;;;;5118358;27;20058;-43
2021/12/12 06:44:40;;;;;;;6.82;2.60;;;;;;;;;;5120496;27;20098;-41
2021/12/12 06:47:08;;;;;;;3.78;2.70;;;;;;;;;;5116463;27;20080;-43
2021/12/12 06:49:34;;;;;;;4.47;2.45;;;;;;;;;;5114757;27;20033;-41
2021/12/12 06:52:00;;;;;;;3.42;2.35;;;;;;;;;;5115237;27;20019;-43
2021/12/12 06:54:27;;;;;;;4.22;1.88;;;;;;;;;;5118854;27;20041;-42
2021/12/12 06:56:54;;;;;;;9.77;3.55;;;;;;;;;;5116198;27;20030;-42
2021/12/12 06:59:23;;;;;;;8.38;4.22;;;;;;;;;;5118275;27;20048;-41
2021/12/12 07:01:49;;;;;;;5.00;3.80;;;;;;;;;;5119584;27;20028;-42
2021/12/12 07:04:18;;;;;;;9.13;4.57;;;;;;;;;;5114149;27;20028;-42
2021/12/12 07:06:45;;;;;;;9.90;3.33;;;;;;;;;;5117284;27;20038;-43
2021/12/12 07:09:11;;;;;;;8.20;3.42;;;;;;;;;;5120626;27;20039;-42
2021/12/12 07:11:36;;;;;;;3.28;2.33;;;;;;;;;;5117122;27;20023;-42
2021/12/12 07:14:03;;;;;;;12.20;4.45;;;;;;;;;;5118475;27;20027;-45
2021/12/12 07:16:29;;;;;;;6.45;2.17;;;;;;;;;;5114177;27;20043;-41
2021/12/12 07:18:55;;;;;;;6.78;3.28;;;;;;;;;;5117554;27;20302;-45
2021/12/12 07:21:21;;;;;;;8.50;2.72;;;;;;;;;;5119942;27;20019;-43
2021/12/12 07:23:47;;;;;;;8.02;2.97;;;;;;;;;;5113556;27;20555;-40
2021/12/12 07:26:14;;;;;;;8.00;5.38;;;;;;;;;;5119367;27;20256;-42
2021/12/12 07:28:40;;;;;;;17.13;7.20;;;;;;;;;;5110615;27;20012;-46
2021/12/12 07:31:07;;;;;;;6.00;4.28;;;;;;;;;;5112337;27;20028;-43
2021/12/12 07:33:33;;;;;;;2.78;2.15;;;;;;;;;;5117323;27;20506;-46
2021/12/12 07:36:00;;;;;;;9.35;1.52;;;;;;;;;;5113599;27;20015;-45
2021/12/12 07:38:26;;;;;;;5.97;2.28;;;;;;;;;;5118196;27;20019;-45
2021/12/12 07:40:51;;;;;;;5.22;3.15;;;;;;;;;;5118219;27;20020;-46
2021/12/12 07:43:16;;;;;;;7.18;2.38;;;;;;;;;;5116844;27;20140;-44
2021/12/12 07:45:42;;;;;;;7.18;2.97;;;;;;;;;;5116905;27;20019;-48
2021/12/12 07:48:08;;;;;;;6.13;3.35;;;;;;;;;;5117866;27;20014;-44
2021/12/12 07:50:34;;;;;;;11.35;5.65;;;;;;;;;;5118116;27;20035;-42
2021/12/12 07:53:00;;;;;;;9.70;7.28;;;;;;;;;;5120250;27;20015;-44
2021/12/12 07:55:25;;;;;;;12.73;7.13;;;;;;;;;;5117008;27;20055;-42
2021/12/12 07:57:51;;;;;;;14.20;6.57;;;;;;;;;;5116263;27;20019;-43
2021/12/12 08:00:20;;;;;;;12.27;8.35;;;;;;;;;;5117093;27;20509;-45
2021/12/12 08:02:47;;;;;;;16.40;10.30;;;;;;;;;;5111112;27;20019;-41
2021/12/12 08:05:13;;;;;;;15.23;10.45;;;;;;;;;;5113265;27;20022;-46
2021/12/12 08:07:41;;;;;;;13.80;10.07;;;;;;;;;;5118257;27;20435;-45
2021/12/12 08:10:07;;;;;;;10.00;7.93;;;;;;;;;;5115249;27;20024;-44
2021/12/12 08:12:32;;;;;;;10.70;7.70;;;;;;;;;;5117500;27;20020;-45
2021/12/12 08:14:58;;;;;;;7.57;5.65;;;;;;;;;;5114121;27;20027;-46
2021/12/12 08:17:26;;;;;;;8.77;6.85;;;;;;;;;;5117883;27;20349;-47
2021/12/12 08:19:55;;;;;;;24.73;6.43;;;;;;;;;;5118651;27;20039;-46
2021/12/12 08:22:20;;;;;;;15.95;9.18;;;;;;;;;;5117716;27;20019;-45
2021/12/12 08:24:45;;;;;;;14.02;8.40;;;;;;;;;;5116726;27;20026;-43
2021/12/12 08:27:14;;;;;;;20.67;15.23;;;;;;;;;;5115722;27;20020;-42
2021/12/12 08:29:40;;;;;;;14.43;11.15;;;;;;;;;;5112585;27;20039;-47
2021/12/12 08:32:07;;;;;;;20.85;13.60;;;;;;;;;;5116851;27;20034;-43
2021/12/12 08:34:32;;;;;;;18.77;14.30;;;;;;;;;;5117602;27;20018;-42
2021/12/12 08:36:58;;;;;;;13.55;12.15;;;;;;;;;;5115746;27;20402;-43
2021/12/12 08:39:25;;;;;;;18.33;11.57;;;;;;;;;;5115269;27;20015;-41
2021/12/12 08:41:51;;;;;;;28.20;14.95;;;;;;;;;;5116613;27;20077;-43
2021/12/12 08:44:18;;;;;;;19.88;13.25;;;;;;;;;;5112842;27;20372;-41
2021/12/12 08:46:46;;;;;;;14.20;12.52;;;;;;;;;;5112763;27;20039;-46
2021/12/12 08:49:12;;;;;;;15.75;12.02;;;;;;;;;;5115273;27;20038;-42
2021/12/12 08:51:39;;;;;;;16.33;13.88;;;;;;;;;;5112130;27;20020;-42
2021/12/12 08:54:13;;;;;;;25.20;17.25;;;;;;;;;;5109431;27;20016;-45
2021/12/12 08:56:46;;;;;;;19.70;15.48;;;;;;;;;;5115792;27;20016;-44
2021/12/12 08:59:21;;;;;;;21.88;15.70;;;;;;;;;;5115269;27;20031;-42
2021/12/12 09:01:48;;;;;;;23.60;21.10;;;;;;;;;;5116889;27;20023;-43
2021/12/12 09:04:13;;;;;;;39.63;28.40;;;;;;;;;;5110727;27;20055;-43
2021/12/12 09:06:48;;;;;;;40.13;30.45;;;;;;;;;;5113409;27;20049;-44
2021/12/12 09:09:15;;;;;;;35.50;29.65;;;;;;;;;;5112580;28;20096;-46
2021/12/12 09:11:52;;;;;;;39.58;27.73;;;;;;;;;;5116825;27;20011;-44
2021/12/12 09:14:30;;;;;;;26.50;21.40;;;;;;;;;;5116016;27;20106;-42
2021/12/12 09:16:59;;;;;;;25.17;21.77;;;;;;;;;;5114811;28;20013;-39
2021/12/12 09:19:28;;;;;;;25.83;20.65;;;;;;;;;;5120032;28;20074;-40
2021/12/12 09:22:20;;;;;;;27.15;21.83;;;;;;;;;;5117978;28;20061;-41
2021/12/12 09:24:56;;;;;;;28.10;20.33;;;;;;;;;;5110400;28;20059;-44
2021/12/12 09:27:50;;;;;;;40.10;27.48;;;;;;;;;;5113767;28;20054;-41
2021/12/12 09:30:25;;;;;;;55.45;38.22;;;;;;;;;;5020152;28;20035;-45
2021/12/12 09:33:04;;;;;;;42.47;29.80;;;;;;;;;;5115051;28;20085;-42
2021/12/12 09:35:32;;;;;;;42.13;30.73;;;;;;;;;;5116629;28;20020;-42
2021/12/12 09:38:01;;;;;;;37.42;29.65;;;;;;;;;;5114585;28;20081;-46
2021/12/12 09:40:38;;;;;;;43.22;33.72;;;;;;;;;;5116802;28;20019;-45
2021/12/12 09:43:31;;;;;;;33.88;27.70;;;;;;;;;;5116121;28;20484;-46
2021/12/12 09:46:03;;;;;;;61.75;44.67;;;;;;;;;;5113992;28;20026;-44
2021/12/12 09:51:14;;;;;;;;;;;;;;;;;;5113335;28;20116;-43
2021/12/12 09:51:33;;;;;;;45.97;36.65;;;;;;;;;;5115310;28;19912;-44
2021/12/12 09:54:36;;;;;;;38.58;28.55;;;;;;;;;;5114027;28;20491;-46
2021/12/12 09:57:19;;;;;;;31.95;28.60;;;;;;;;;;5003153;28;20026;-43
2021/12/12 09:59:48;;;;;;;53.25;29.05;;;;;;;;;;5003005;28;20228;-46
2021/12/12 10:02:22;;;;;;;48.92;33.50;;;;;;;;;;5068468;28;20035;-45
2021/12/12 10:04:59;;;;;;;42.55;33.38;;;;;;;;;;5115823;28;20049;-45
2021/12/12 10:07:33;;;;;;;47.42;36.63;;;;;;;;;;5116251;28;20018;-43
2021/12/12 10:10:01;;;;;;;44.70;32.08;;;;;;;;;;5112191;28;20023;-41
2021/12/12 10:12:28;;;;;;;46.33;32.03;;;;;;;;;;5110759;28;20059;-45
2021/12/12 10:14:57;;;;;;;33.25;29.63;;;;;;;;;;5116007;28;20059;-43
2021/12/12 10:17:31;;;;;;;42.83;32.05;;;;;;;;;;5111268;28;20023;-43
2021/12/12 10:20:13;;;;;;;39.17;31.23;;;;;;;;;;5111764;27;20143;-43
2021/12/12 10:22:57;;;;;;;51.90;39.35;;;;;;;;;;5114878;27;20024;-44
2021/12/12 10:25:34;;;;;;;61.88;49.88;;;;;;;;;;5117484;27;20015;-46
2021/12/12 10:28:11;;;;;;;61.78;48.10;;;;;;;;;;5117946;27;20060;-42
2021/12/12 10:30:44;;;;;;;79.80;50.45;;;;;;;;;;5120479;27;20411;-41
2021/12/12 10:33:14;;;;;;;44.33;37.50;;;;;;;;;;5117639;27;20099;-45
2021/12/12 10:35:46;;;;;;;54.42;39.72;;;;;;;;;;5118023;27;20106;-46
2021/12/12 10:38:17;;;;;;;67.28;46.50;;;;;;;;;;5116413;27;20096;-46
2021/12/12 10:40:47;;;;;;;72.88;57.90;;;;;;;;;;5115787;27;20039;-47
2021/12/12 10:43:15;;;;;;;78.63;63.40;;;;;;;;;;5113555;27;20028;-43
2021/12/12 10:45:41;;;;;;;76.65;68.32;;;;;;;;;;5115963;27;20015;-47
2021/12/12 10:48:15;;;;;;;78.50;66.47;;;;;;;;;;5114823;27;20131;-41
2021/12/12 10:50:41;;;;;;;55.78;49.63;;;;;;;;;;5114335;27;20027;-43
2021/12/12 10:53:19;;;;;;;87.22;62.70;;;;;;;;;;5118019;27;20023;-44
2021/12/12 10:55:53;;;;;;;45.70;39.45;;;;;;;;;;5117238;27;20489;-44
2021/12/12 10:58:27;;;;;;;64.72;41.75;;;;;;;;;;5116414;27;20020;-42
2021/12/12 11:00:57;;;;;;;46.53;41.50;;;;;;;;;;5117332;27;20567;-43
2021/12/12 11:03:31;;;;;;;49.42;41.67;;;;;;;;;;5119556;27;20015;-43
2021/12/12 11:06:01;;;;;;;68.03;54.05;;;;;;;;;;5117114;27;20024;-43
2021/12/12 11:08:35;;;;;;;69.20;61.42;;;;;;;;;;5116145;27;20020;-43
2021/12/12 11:11:01;;;;;;;66.40;59.58;;;;;;;;;;5118788;27;20020;-42
2021/12/12 11:13:26;;;;;;;75.55;64.55;;;;;;;;;;5119927;27;20027;-42
2021/12/12 11:15:54;;;;;;;74.85;60.55;;;;;;;;;;5115661;27;20016;-47
2021/12/12 11:18:24;;;;;;;80.00;71.35;;;;;;;;;;5112431;27;20118;-46
2021/12/12 11:20:54;;;;;;;80.03;71.00;;;;;;;;;;5112849;27;20023;-43
2021/12/12 11:23:22;;;;;;;83.75;71.35;;;;;;;;;;5110476;27;20024;-46
2021/12/12 11:25:48;;;;;;;77.22;56.97;;;;;;;;;;5113848;27;20016;-43
2021/12/12 11:28:20;;;;;;;66.97;55.45;;;;;;;;;;5117676;27;20004;-44
2021/12/12 11:31:08;;;;;;;59.35;50.85;;;;;;;;;;5114689;27;20392;-42
2021/12/12 11:33:36;;;;;;;56.40;43.25;;;;;;;;;;5107576;27;20027;-44
2021/12/12 11:36:02;;;;;;;32.80;27.13;;;;;;;;;;5113230;27;20020;-43
2021/12/12 11:38:30;;;;;;;19.20;12.50;;;;;;;;;;5114887;27;20043;-45
2021/12/12 11:41:10;;;;;;;22.52;15.05;;;;;;;;;;5097508;27;20404;-45
2021/12/12 11:43:36;;;;;;;18.33;8.73;;;;;;;;;;5116247;27;20026;-45
2021/12/12 11:46:04;;;;;;;21.58;16.05;;;;;;;;;;5115636;27;20727;-43
2021/12/12 11:48:29;;;;;;;13.63;11.80;;;;;;;;;;5116429;27;20015;-43
2021/12/12 11:51:03;;;;;;;17.90;13.35;;;;;;;;;;5115399;27;20441;-41
2021/12/12 11:53:37;;;;;;;17.38;14.05;;;;;;;;;;5118776;27;20095;-44
2021/12/12 11:56:06;;;;;;;24.75;15.75;;;;;;;;;;5116132;27;20473;-42
2021/12/12 11:58:37;;;;;;;9.05;7.70;;;;;;;;;;5120880;27;20094;-41
2021/12/12 12:01:22;;;;;;;10.45;4.60;;;;;;;;;;5113763;27;20071;-43
2021/12/12 12:04:00;;;;;;;5.35;3.55;;;;;;;;;;5114467;27;20192;-42
2021/12/12 12:06:33;;;;;;;17.20;4.68;;;;;;;;;;5114505;27;20024;-43
2021/12/12 12:09:05;;;;;;;10.65;5.10;;;;;;;;;;5115465;27;20032;-42
2021/12/12 12:11:47;;;;;;;10.27;5.32;;;;;;;;;;5096527;27;20099;-45
2021/12/12 12:14:26;;;;;;;6.35;4.47;;;;;;;;;;5115391;27;20821;-45
2021/12/12 12:16:58;;;;;;;11.07;3.10;;;;;;;;;;5118117;27;20023;-42
2021/12/12 12:19:42;;;;;;;10.45;5.85;;;;;;;;;;5116477;27;20496;-44
2021/12/12 12:22:25;;;;;;;13.75;6.35;;;;;;;;;;5114622;27;20034;-43
2021/12/12 12:24:59;;;;;;;5.72;4.38;;;;;;;;;;5117252;27;20035;-46
2021/12/12 12:27:48;;;;;;;4.25;3.20;;;;;;;;;;5114826;27;20035;-41
2021/12/12 12:30:32;;;;;;;5.70;4.03;;;;;;;;;;5113194;27;20074;-43
2021/12/12 12:33:13;;;;;;;3.38;2.30;;;;;;;;;;5112390;27;20019;-41
2021/12/12 12:35:57;;;;;;;10.45;4.30;;;;;;;;;;5114511;27;20016;-44
2021/12/12 12:38:42;;;;;;;8.00;3.45;;;;;;;;;;5113895;27;20039;-45
2021/12/12 12:41:26;;;;;;;7.35;2.85;;;;;;;;;;5113492;27;20030;-43
2021/12/12 12:44:10;;;;;;;4.80;2.55;;;;;;;;;;5114744;27;20054;-42
2021/12/12 12:46:54;;;;;;;7.20;2.92;;;;;;;;;;5113322;27;20024;-46
2021/12/12 12:49:38;;;;;;;4.88;2.80;;;;;;;;;;5118075;27;20038;-45
2021/12/12 12:52:24;;;;;;;5.05;2.25;;;;;;;;;;5112929;27;20080;-44
2021/12/12 12:55:08;;;;;;;1.90;1.40;;;;;;;;;;5113165;27;20115;-42
2021/12/12 12:57:37;;;;;;;7.47;2.17;;;;;;;;;;5113193;27;20027;-41
2021/12/12 13:00:08;;;;;;;9.70;1.52;;;;;;;;;;5115371;27;20103;-46
2021/12/12 13:02:33;;;;;;;;;;;;;;;;;;5117750;27;20046;-44
2021/12/12 13:05:07;;;;;;;7.40;2.40;;;;;;;;;;5118314;27;20485;-43
2021/12/12 13:08:08;;;;;;;11.63;3.03;;;;;;;;;;5114467;27;20471;-44
2021/12/12 13:10:33;;;;;;;12.80;2.67;;;;;;;;;;5004459;28;20056;-45
2021/12/12 13:13:12;;;;;;;4.75;1.77;;;;;;;;;;5087179;28;20456;-46
2021/12/12 13:15:49;;;;;;;2.88;1.80;;;;;;;;;;5110793;27;20019;-43
2021/12/12 13:18:26;;;;;;;5.82;3.10;;;;;;;;;;5117229;27;20072;-42
2021/12/12 13:20:52;;;;;;;9.98;3.65;;;;;;;;;;5116267;28;20020;-44
2021/12/12 13:23:23;;;;;;;4.10;3.15;;;;;;;;;;5118830;28;20388;-42
2021/12/12 13:25:51;;;;;;;6.43;4.55;;;;;;;;;;5114785;28;20019;-46
2021/12/12 13:28:35;;;;;;;8.35;4.93;;;;;;;;;;5113772;28;20019;-43
2021/12/12 13:31:03;;;;;;;7.32;5.85;;;;;;;;;;5112299;28;20023;-42
2021/12/12 13:33:34;;;;;;;13.57;6.88;;;;;;;;;;5111210;28;20033;-48
2021/12/12 13:36:02;;;;;;;6.43;4.85;;;;;;;;;;5114501;28;20008;-45
2021/12/12 13:38:32;;;;;;;12.50;4.20;;;;;;;;;;5116455;28;20763;-47
2021/12/12 13:41:12;;;;;;;4.63;2.92;;;;;;;;;;5113719;28;20474;-43
2021/12/12 13:43:56;;;;;;;8.38;5.25;;;;;;;;;;5114872;28;20020;-47
2021/12/12 13:46:40;;;;;;;10.60;5.65;;;;;;;;;;5112442;28;20020;-45
2021/12/12 13:49:11;;;;;;;6.03;4.78;;;;;;;;;;5116905;28;20444;-47
2021/12/12 13:51:38;;;;;;;;;;;;;;;;;;5112023;28;20027;-41
2021/12/12 13:54:12;;;;;;;19.35;15.98;;;;;;;;;;5113726;28;19923;-42
2021/12/12 13:56:56;;;;;;;14.50;7.45;;;;;;;;;;5112542;28;20011;-42
2021/12/12 13:59:40;;;;;;;7.45;5.30;;;;;;;;;;5116101;27;20011;-42
2021/12/12 14:02:07;;;;;;;19.50;6.22;;;;;;;;;;5120063;27;20349;-42
2021/12/12 14:04:51;;;;;;;8.23;5.45;;;;;;;;;;5115962;27;20042;-42
2021/12/12 14:07:17;;;;;;;13.50;5.47;;;;;;;;;;5119603;27;20162;-48
2021/12/12 14:09:44;;;;;;;8.63;5.35;;;;;;;;;;5098498;28;20764;-49
2021/12/12 14:12:11;;;;;;;10.15;3.65;;;;;;;;;;5114747;27;20032;-49
2021/12/12 14:14:41;;;;;;;10.05;5.93;;;;;;;;;;5118698;27;20028;-51
2021/12/12 14:17:13;;;;;;;15.27;7.75;;;;;;;;;;5120361;27;20100;-47
2021/12/12 14:19:50;;;;;;;13.50;10.52;;;;;;;;;;5119007;27;20520;-50
2021/12/12 14:22:17;;;;;;;12.55;5.63;;;;;;;;;;5115907;27;20019;-50
2021/12/12 14:24:43;;;;;;;8.55;5.22;;;;;;;;;;5116110;27;20027;-50
2021/12/12 14:27:11;;;;;;;4.18;3.20;;;;;;;;;;5115401;27;20025;-49
2021/12/12 14:29:37;;;;;;;5.22;3.97;;;;;;;;;;5113304;27;20562;-49
2021/12/12 14:32:28;;;;;;;7.78;5.35;;;;;;;;;;5115420;27;20038;-49
2021/12/12 14:35:07;;;;;;;10.25;3.10;;;;;;;;;;5108913;27;20032;-47
2021/12/12 14:37:34;;;;;;;8.32;5.70;;;;;;;;;;5114962;27;20758;-52
2021/12/12 14:40:02;;;;;;;6.57;3.63;;;;;;;;;;5114654;27;20019;-47
2021/12/12 14:42:28;;;;;;;5.70;3.40;;;;;;;;;;5113062;27;20011;-51
2021/12/12 14:44:56;;;;;;;5.97;4.90;;;;;;;;;;5113703;27;20042;-48
2021/12/12 14:47:23;;;;;;;9.93;6.75;;;;;;;;;;5112974;27;20031;-47
2021/12/12 14:49:56;;;;;;;11.27;4.32;;;;;;;;;;5110980;27;20709;-51
2021/12/12 14:52:22;;;;;;;12.48;5.32;;;;;;;;;;5111726;27;20110;-50
2021/12/12 14:54:51;;;;;;;7.75;3.85;;;;;;;;;;5109087;27;20023;-51
2021/12/12 14:57:18;;;;;;;5.28;4.75;;;;;;;;;;5116233;27;20075;-51
2021/12/12 14:59:45;;;;;;;8.40;4.50;;;;;;;;;;5114901;27;20038;-48
2021/12/12 15:02:14;;;;;;;8.90;4.85;;;;;;;;;;5112332;27;20026;-47
2021/12/12 15:05:00;;;;;;;7.90;3.65;;;;;;;;;;5111327;27;20114;-49
2021/12/12 15:07:26;;;;;;;6.45;4.95;;;;;;;;;;5115159;27;20083;-48